sensor_id;sensor_type;location;lat;lon;timestamp;temperature;humidity
18191;DHT22;47004;51.366;12.348;2023-11-21T00:02:00;6.80;99.90
18191;DHT22;47004;51.366;12.348;2023-11-21T00:04:03;6.80;99.90
18191;DHT22;47004;51.366;12.348;2023-11-21T00:06:08;6.80;99.90
18191;DHT22;47004;51.366;12.348;2023-11-21T00:08:10;6.80;99.90
18191;DHT22;47004;51.366;12.348;2023-11-21T00:10:12;6.50;99.90
18191;DHT22;47004;51.366;12.348;2023-11-21T00:12:14;6.60;99.90
18191;DHT22;47004;51.366;12.348;2023-11-21T00:14:16;6.70;99.90
18191;DHT22;47004;51.366;12.348;2023-11-21T00:16:18;6.70;99.90
18191;DHT22;47004;51.366;12.348;2023-11-21T00:18:21;6.60;99.90
18191;DHT22;47004;51.366;12.348;2023-11-21T00:20:24;6.70;99.90
18191;DHT22;47004;51.366;12.348;2023-11-21T00:22:26;6.60;99.90
18191;DHT22;47004;51.366;12.348;2023-11-21T00:24:30;6.60;99.90
18191;DHT22;47004;51.366;12.348;2023-11-21T00:26:33;6.50;99.90
18191;DHT22;47004;51.366;12.348;2023-11-21T00:28:37;6.50;99.90
18191;DHT22;47004;51.366;12.348;2023-11-21T00:30:39;6.40;99.90
18191;DHT22;47004;51.366;12.348;2023-11-21T00:32:41;6.50;99.90
18191;DHT22;47004;51.366;12.348;2023-11-21T00:34:43;6.40;99.90
18191;DHT22;47004;51.366;12.348;2023-11-21T00:36:46;6.40;99.90
18191;DHT22;47004;51.366;12.348;2023-11-21T00:38:48;6.40;99.90
18191;DHT22;47004;51.366;12.348;2023-11-21T00:40:50;6.40;99.90
18191;DHT22;47004;51.366;12.348;2023-11-21T00:42:52;6.30;99.90
18191;DHT22;47004;51.366;12.348;2023-11-21T00:44:54;6.40;99.90
18191;DHT22;47004;51.366;12.348;2023-11-21T00:46:55;6.30;99.90
18191;DHT22;47004;51.366;12.348;2023-11-21T00:48:56;6.30;99.90
18191;DHT22;47004;51.366;12.348;2023-11-21T00:50:59;6.30;99.90
18191;DHT22;47004;51.366;12.348;2023-11-21T00:53:02;6.30;99.90
18191;DHT22;47004;51.366;12.348;2023-11-21T00:55:05;6.20;99.90
18191;DHT22;47004;51.366;12.348;2023-11-21T00:57:08;6.20;99.90
18191;DHT22;47004;51.366;12.348;2023-11-21T00:59:12;6.20;99.90
18191;DHT22;47004;51.366;12.348;2023-11-21T01:01:14;6.20;99.90
18191;DHT22;47004;51.366;12.348;2023-11-21T01:03:16;6.20;99.90
18191;DHT22;47004;51.366;12.348;2023-11-21T01:05:18;6.20;99.90
18191;DHT22;47004;51.366;12.348;2023-11-21T01:07:20;6.20;99.90
18191;DHT22;47004;51.366;12.348;2023-11-21T01:09:24;6.20;99.90
18191;DHT22;47004;51.366;12.348;2023-11-21T01:11:26;6.20;99.90
18191;DHT22;47004;51.366;12.348;2023-11-21T01:13:28;6.20;99.90
18191;DHT22;47004;51.366;12.348;2023-11-21T01:15:30;6.20;99.90
18191;DHT22;47004;51.366;12.348;2023-11-21T01:17:31;6.50;99.90
18191;DHT22;47004;51.366;12.348;2023-11-21T01:19:34;6.20;99.90
18191;DHT22;47004;51.366;12.348;2023-11-21T01:21:36;6.20;99.90
18191;DHT22;47004;51.366;12.348;2023-11-21T01:23:38;6.20;99.90
18191;DHT22;47004;51.366;12.348;2023-11-21T01:25:41;6.30;99.90
18191;DHT22;47004;51.366;12.348;2023-11-21T01:27:43;6.20;99.90
18191;DHT22;47004;51.366;12.348;2023-11-21T01:29:45;6.30;99.90
18191;DHT22;47004;51.366;12.348;2023-11-21T01:31:47;6.30;99.90
18191;DHT22;47004;51.366;12.348;2023-11-21T01:33:48;6.30;99.90
18191;DHT22;47004;51.366;12.348;2023-11-21T01:35:50;6.30;99.90
18191;DHT22;47004;51.366;12.348;2023-11-21T01:37:55;6.20;99.90
18191;DHT22;47004;51.366;12.348;2023-11-21T01:39:57;6.30;99.90
18191;DHT22;47004;51.366;12.348;2023-11-21T01:42:01;6.30;99.90
18191;DHT22;47004;51.366;12.348;2023-11-21T01:44:03;6.40;99.90
18191;DHT22;47004;51.366;12.348;2023-11-21T01:46:08;6.30;99.90
18191;DHT22;47004;51.366;12.348;2023-11-21T01:48:11;6.40;99.90
18191;DHT22;47004;51.366;12.348;2023-11-21T01:50:16;6.40;99.90
18191;DHT22;47004;51.366;12.348;2023-11-21T01:52:18;6.40;99.90
18191;DHT22;47004;51.366;12.348;2023-11-21T01:54:20;6.40;99.90
18191;DHT22;47004;51.366;12.348;2023-11-21T01:56:22;6.40;99.90
18191;DHT22;47004;51.366;12.348;2023-11-21T01:58:25;6.50;99.90
18191;DHT22;47004;51.366;12.348;2023-11-21T02:00:27;6.40;99.90
18191;DHT22;47004;51.366;12.348;2023-11-21T02:02:30;6.40;99.90
18191;DHT22;47004;51.366;12.348;2023-11-21T02:04:31;6.40;99.90
18191;DHT22;47004;51.366;12.348;2023-11-21T02:06:33;6.10;99.90
18191;DHT22;47004;51.366;12.348;2023-11-21T02:08:35;6.40;99.90
18191;DHT22;47004;51.366;12.348;2023-11-21T02:10:38;6.50;99.90
18191;DHT22;47004;51.366;12.348;2023-11-21T02:12:41;6.40;99.90
18191;DHT22;47004;51.366;12.348;2023-11-21T02:14:45;6.50;99.90
18191;DHT22;47004;51.366;12.348;2023-11-21T02:16:46;6.50;99.90
18191;DHT22;47004;51.366;12.348;2023-11-21T02:18:51;6.50;99.90
18191;DHT22;47004;51.366;12.348;2023-11-21T02:20:54;6.50;99.90
18191;DHT22;47004;51.366;12.348;2023-11-21T02:22:58;6.50;99.90
18191;DHT22;47004;51.366;12.348;2023-11-21T02:24:59;6.50;99.90
18191;DHT22;47004;51.366;12.348;2023-11-21T02:27:04;6.50;99.90
18191;DHT22;47004;51.366;12.348;2023-11-21T02:29:06;6.50;99.90
18191;DHT22;47004;51.366;12.348;2023-11-21T02:31:11;6.50;99.90
18191;DHT22;47004;51.366;12.348;2023-11-21T02:33:13;6.50;99.90
18191;DHT22;47004;51.366;12.348;2023-11-21T02:35:15;6.80;99.90
18191;DHT22;47004;51.366;12.348;2023-11-21T02:37:16;6.50;99.90
18191;DHT22;47004;51.366;12.348;2023-11-21T02:39:19;6.60;99.90
18191;DHT22;47004;51.366;12.348;2023-11-21T02:41:22;6.50;99.90
18191;DHT22;47004;51.366;12.348;2023-11-21T02:43:24;6.50;99.90
18191;DHT22;47004;51.366;12.348;2023-11-21T02:45:26;6.50;99.90
18191;DHT22;47004;51.366;12.348;2023-11-21T02:47:28;6.50;99.90
18191;DHT22;47004;51.366;12.348;2023-11-21T02:49:30;6.50;99.90
18191;DHT22;47004;51.366;12.348;2023-11-21T02:51:32;6.50;99.90
18191;DHT22;47004;51.366;12.348;2023-11-21T02:53:33;6.40;99.90
18191;DHT22;47004;51.366;12.348;2023-11-21T02:55:37;6.40;99.90
18191;DHT22;47004;51.366;12.348;2023-11-21T02:57:39;6.40;99.90
18191;DHT22;47004;51.366;12.348;2023-11-21T02:59:40;6.40;99.90
18191;DHT22;47004;51.366;12.348;2023-11-21T03:01:42;6.30;99.90
18191;DHT22;47004;51.366;12.348;2023-11-21T03:03:43;6.30;99.90
18191;DHT22;47004;51.366;12.348;2023-11-21T03:05:46;6.30;99.90
18191;DHT22;47004;51.366;12.348;2023-11-21T03:07:48;6.30;99.90
18191;DHT22;47004;51.366;12.348;2023-11-21T03:09:49;6.30;99.90
18191;DHT22;47004;51.366;12.348;2023-11-21T03:11:52;6.30;99.90
18191;DHT22;47004;51.366;12.348;2023-11-21T03:13:57;6.30;99.90
18191;DHT22;47004;51.366;12.348;2023-11-21T03:15:59;6.30;99.90
18191;DHT22;47004;51.366;12.348;2023-11-21T03:18:00;6.30;99.90
18191;DHT22;47004;51.366;12.348;2023-11-21T03:20:03;6.30;99.90
18191;DHT22;47004;51.366;12.348;2023-11-21T03:22:06;6.30;99.90
18191;DHT22;47004;51.366;12.348;2023-11-21T03:24:09;6.30;99.90
18191;DHT22;47004;51.366;12.348;2023-11-21T03:26:12;6.30;99.90
18191;DHT22;47004;51.366;12.348;2023-11-21T03:28:14;6.30;99.90
18191;DHT22;47004;51.366;12.348;2023-11-21T03:30:16;6.40;99.90
18191;DHT22;47004;51.366;12.348;2023-11-21T03:32:18;6.40;99.90
18191;DHT22;47004;51.366;12.348;2023-11-21T03:34:23;6.40;99.90
18191;DHT22;47004;51.366;12.348;2023-11-21T03:36:29;6.40;99.90
18191;DHT22;47004;51.366;12.348;2023-11-21T03:38:31;6.40;99.90
18191;DHT22;47004;51.366;12.348;2023-11-21T03:40:33;6.40;99.90
18191;DHT22;47004;51.366;12.348;2023-11-21T03:42:35;6.40;99.90
18191;DHT22;47004;51.366;12.348;2023-11-21T03:44:37;6.40;99.90
18191;DHT22;47004;51.366;12.348;2023-11-21T03:46:39;6.50;99.90
18191;DHT22;47004;51.366;12.348;2023-11-21T03:48:41;6.50;99.90
18191;DHT22;47004;51.366;12.348;2023-11-21T03:50:43;6.50;99.90
18191;DHT22;47004;51.366;12.348;2023-11-21T03:52:45;6.50;99.90
18191;DHT22;47004;51.366;12.348;2023-11-21T03:54:47;6.40;99.90
18191;DHT22;47004;51.366;12.348;2023-11-21T03:56:49;6.50;99.90
18191;DHT22;47004;51.366;12.348;2023-11-21T03:58:51;6.50;99.90
18191;DHT22;47004;51.366;12.348;2023-11-21T04:00:54;6.50;99.90
18191;DHT22;47004;51.366;12.348;2023-11-21T04:02:56;6.50;99.90
18191;DHT22;47004;51.366;12.348;2023-11-21T04:04:58;6.50;99.90
18191;DHT22;47004;51.366;12.348;2023-11-21T04:07:00;6.50;99.90
18191;DHT22;47004;51.366;12.348;2023-11-21T04:09:02;6.50;99.90
18191;DHT22;47004;51.366;12.348;2023-11-21T04:11:05;6.50;99.90
18191;DHT22;47004;51.366;12.348;2023-11-21T04:13:09;6.50;99.90
18191;DHT22;47004;51.366;12.348;2023-11-21T04:15:11;6.50;99.90
18191;DHT22;47004;51.366;12.348;2023-11-21T04:17:18;6.60;99.90
18191;DHT22;47004;51.366;12.348;2023-11-21T04:19:19;6.50;99.90
18191;DHT22;47004;51.366;12.348;2023-11-21T04:21:21;6.50;99.90
18191;DHT22;47004;51.366;12.348;2023-11-21T04:23:23;6.60;99.90
18191;DHT22;47004;51.366;12.348;2023-11-21T04:25:24;6.50;99.90
18191;DHT22;47004;51.366;12.348;2023-11-21T04:27:27;6.50;99.90
18191;DHT22;47004;51.366;12.348;2023-11-21T04:29:29;6.50;99.90
18191;DHT22;47004;51.366;12.348;2023-11-21T04:31:31;6.50;99.90
18191;DHT22;47004;51.366;12.348;2023-11-21T04:33:34;6.80;99.90
18191;DHT22;47004;51.366;12.348;2023-11-21T04:35:36;6.60;99.90
18191;DHT22;47004;51.366;12.348;2023-11-21T04:37:37;6.60;99.90
18191;DHT22;47004;51.366;12.348;2023-11-21T04:39:40;6.60;99.90
18191;DHT22;47004;51.366;12.348;2023-11-21T04:41:41;6.60;99.90
18191;DHT22;47004;51.366;12.348;2023-11-21T04:43:43;6.60;99.90
18191;DHT22;47004;51.366;12.348;2023-11-21T04:45:45;6.60;99.90
18191;DHT22;47004;51.366;12.348;2023-11-21T04:47:47;6.60;99.90
18191;DHT22;47004;51.366;12.348;2023-11-21T04:49:50;6.70;99.90
18191;DHT22;47004;51.366;12.348;2023-11-21T04:51:52;6.70;99.90
18191;DHT22;47004;51.366;12.348;2023-11-21T04:53:54;6.60;99.90
18191;DHT22;47004;51.366;12.348;2023-11-21T04:55:56;6.70;99.90
18191;DHT22;47004;51.366;12.348;2023-11-21T04:57:58;6.70;99.90
18191;DHT22;47004;51.366;12.348;2023-11-21T04:59:59;6.80;99.90
18191;DHT22;47004;51.366;12.348;2023-11-21T05:02:01;6.70;99.90
18191;DHT22;47004;51.366;12.348;2023-11-21T05:04:04;6.70;99.90
18191;DHT22;47004;51.366;12.348;2023-11-21T05:06:09;6.70;99.90
18191;DHT22;47004;51.366;12.348;2023-11-21T05:08:11;6.70;99.90
18191;DHT22;47004;51.366;12.348;2023-11-21T05:10:13;6.70;99.90
18191;DHT22;47004;51.366;12.348;2023-11-21T05:12:15;6.70;99.90
18191;DHT22;47004;51.366;12.348;2023-11-21T05:14:17;6.80;99.90
18191;DHT22;47004;51.366;12.348;2023-11-21T05:16:20;6.80;99.90
18191;DHT22;47004;51.366;12.348;2023-11-21T05:18:22;6.70;99.90
18191;DHT22;47004;51.366;12.348;2023-11-21T05:20:30;6.70;99.90
18191;DHT22;47004;51.366;12.348;2023-11-21T05:22:35;6.70;99.90
18191;DHT22;47004;51.366;12.348;2023-11-21T05:24:38;6.80;99.90
18191;DHT22;47004;51.366;12.348;2023-11-21T05:26:40;7.00;99.90
18191;DHT22;47004;51.366;12.348;2023-11-21T05:28:42;6.80;99.90
18191;DHT22;47004;51.366;12.348;2023-11-21T05:30:44;6.80;99.90
18191;DHT22;47004;51.366;12.348;2023-11-21T05:32:46;6.80;99.90
18191;DHT22;47004;51.366;12.348;2023-11-21T05:34:47;6.80;99.90
18191;DHT22;47004;51.366;12.348;2023-11-21T05:36:53;6.80;99.90
18191;DHT22;47004;51.366;12.348;2023-11-21T05:38:56;6.80;99.90
18191;DHT22;47004;51.366;12.348;2023-11-21T05:40:58;6.80;99.90
18191;DHT22;47004;51.366;12.348;2023-11-21T05:43:00;6.80;99.90
18191;DHT22;47004;51.366;12.348;2023-11-21T05:45:03;6.80;99.90
18191;DHT22;47004;51.366;12.348;2023-11-21T05:47:10;6.80;99.90
18191;DHT22;47004;51.366;12.348;2023-11-21T05:49:12;6.70;99.90
18191;DHT22;47004;51.366;12.348;2023-11-21T05:51:14;6.80;99.90
18191;DHT22;47004;51.366;12.348;2023-11-21T05:53:16;6.80;99.90
18191;DHT22;47004;51.366;12.348;2023-11-21T05:55:19;6.80;99.90
18191;DHT22;47004;51.366;12.348;2023-11-21T05:57:21;6.80;99.90
18191;DHT22;47004;51.366;12.348;2023-11-21T05:59:23;6.80;99.90
18191;DHT22;47004;51.366;12.348;2023-11-21T06:01:25;6.80;99.90
18191;DHT22;47004;51.366;12.348;2023-11-21T06:03:28;6.80;99.90
18191;DHT22;47004;51.366;12.348;2023-11-21T06:05:30;6.80;99.90
18191;DHT22;47004;51.366;12.348;2023-11-21T06:07:32;6.80;99.90
18191;DHT22;47004;51.366;12.348;2023-11-21T06:09:34;6.80;99.90
18191;DHT22;47004;51.366;12.348;2023-11-21T06:11:39;6.70;99.90
18191;DHT22;47004;51.366;12.348;2023-11-21T06:13:41;6.70;99.90
18191;DHT22;47004;51.366;12.348;2023-11-21T06:15:43;6.70;99.90
18191;DHT22;47004;51.366;12.348;2023-11-21T06:17:47;6.70;99.90
18191;DHT22;47004;51.366;12.348;2023-11-21T06:19:52;6.70;99.90
18191;DHT22;47004;51.366;12.348;2023-11-21T06:21:54;6.70;99.90
18191;DHT22;47004;51.366;12.348;2023-11-21T06:23:56;6.70;99.90
18191;DHT22;47004;51.366;12.348;2023-11-21T06:25:58;6.70;99.90
18191;DHT22;47004;51.366;12.348;2023-11-21T06:28:01;6.70;99.90
18191;DHT22;47004;51.366;12.348;2023-11-21T06:30:04;6.70;99.90
18191;DHT22;47004;51.366;12.348;2023-11-21T06:32:07;6.70;99.90
18191;DHT22;47004;51.366;12.348;2023-11-21T06:34:09;6.70;99.90
18191;DHT22;47004;51.366;12.348;2023-11-21T06:36:11;6.70;99.90
18191;DHT22;47004;51.366;12.348;2023-11-21T06:38:12;6.70;99.90
18191;DHT22;47004;51.366;12.348;2023-11-21T06:40:14;6.70;99.90
18191;DHT22;47004;51.366;12.348;2023-11-21T06:42:18;6.70;99.90
18191;DHT22;47004;51.366;12.348;2023-11-21T06:44:21;6.70;99.90
18191;DHT22;47004;51.366;12.348;2023-11-21T06:46:24;6.70;99.90
18191;DHT22;47004;51.366;12.348;2023-11-21T06:48:26;6.80;99.90
18191;DHT22;47004;51.366;12.348;2023-11-21T06:50:27;6.80;99.90
18191;DHT22;47004;51.366;12.348;2023-11-21T06:52:29;6.70;99.90
18191;DHT22;47004;51.366;12.348;2023-11-21T06:54:31;6.80;99.90
18191;DHT22;47004;51.366;12.348;2023-11-21T06:56:34;6.80;99.90
18191;DHT22;47004;51.366;12.348;2023-11-21T06:58:36;6.70;99.90
18191;DHT22;47004;51.366;12.348;2023-11-21T07:00:39;6.80;99.90
18191;DHT22;47004;51.366;12.348;2023-11-21T07:02:46;6.80;99.90
18191;DHT22;47004;51.366;12.348;2023-11-21T07:04:48;6.80;99.90
18191;DHT22;47004;51.366;12.348;2023-11-21T07:06:50;6.80;99.90
18191;DHT22;47004;51.366;12.348;2023-11-21T07:08:52;6.80;99.90
18191;DHT22;47004;51.366;12.348;2023-11-21T07:10:53;6.80;99.90
18191;DHT22;47004;51.366;12.348;2023-11-21T07:12:55;6.70;99.90
18191;DHT22;47004;51.366;12.348;2023-11-21T07:14:57;6.80;99.90
18191;DHT22;47004;51.366;12.348;2023-11-21T07:17:01;6.80;99.90
18191;DHT22;47004;51.366;12.348;2023-11-21T07:19:02;6.90;99.90
18191;DHT22;47004;51.366;12.348;2023-11-21T07:21:06;6.90;99.90
18191;DHT22;47004;51.366;12.348;2023-11-21T07:23:12;6.80;99.90
18191;DHT22;47004;51.366;12.348;2023-11-21T07:25:13;6.90;99.90
18191;DHT22;47004;51.366;12.348;2023-11-21T07:27:14;6.90;99.90
18191;DHT22;47004;51.366;12.348;2023-11-21T07:29:15;6.90;99.90
18191;DHT22;47004;51.366;12.348;2023-11-21T07:31:17;6.90;99.90
18191;DHT22;47004;51.366;12.348;2023-11-21T07:33:21;7.10;99.90
18191;DHT22;47004;51.366;12.348;2023-11-21T07:35:23;7.40;99.90
18191;DHT22;47004;51.366;12.348;2023-11-21T07:37:25;7.00;99.90
18191;DHT22;47004;51.366;12.348;2023-11-21T07:39:26;7.00;99.90
18191;DHT22;47004;51.366;12.348;2023-11-21T07:41:28;7.00;99.90
18191;DHT22;47004;51.366;12.348;2023-11-21T07:43:30;7.00;99.90
18191;DHT22;47004;51.366;12.348;2023-11-21T07:45:35;7.00;99.90
18191;DHT22;47004;51.366;12.348;2023-11-21T07:47:37;7.10;99.90
18191;DHT22;47004;51.366;12.348;2023-11-21T07:49:41;7.10;99.90
18191;DHT22;47004;51.366;12.348;2023-11-21T07:51:44;7.10;99.90
18191;DHT22;47004;51.366;12.348;2023-11-21T07:53:46;7.10;99.90
18191;DHT22;47004;51.366;12.348;2023-11-21T07:55:48;7.10;99.90
18191;DHT22;47004;51.366;12.348;2023-11-21T07:57:49;7.50;99.90
18191;DHT22;47004;51.366;12.348;2023-11-21T07:59:51;7.20;99.90
18191;DHT22;47004;51.366;12.348;2023-11-21T08:01:54;7.20;99.90
18191;DHT22;47004;51.366;12.348;2023-11-21T08:03:56;7.20;99.90
18191;DHT22;47004;51.366;12.348;2023-11-21T08:06:04;7.20;99.90
18191;DHT22;47004;51.366;12.348;2023-11-21T08:08:06;7.20;99.90
18191;DHT22;47004;51.366;12.348;2023-11-21T08:10:09;7.30;99.90
18191;DHT22;47004;51.366;12.348;2023-11-21T08:12:11;7.20;99.90
18191;DHT22;47004;51.366;12.348;2023-11-21T08:14:13;7.20;99.90
18191;DHT22;47004;51.366;12.348;2023-11-21T08:16:15;7.20;99.90
18191;DHT22;47004;51.366;12.348;2023-11-21T08:18:17;7.30;99.90
18191;DHT22;47004;51.366;12.348;2023-11-21T08:20:19;7.30;99.90
18191;DHT22;47004;51.366;12.348;2023-11-21T08:22:24;7.30;99.90
18191;DHT22;47004;51.366;12.348;2023-11-21T08:24:26;7.30;99.90
18191;DHT22;47004;51.366;12.348;2023-11-21T08:26:28;7.30;99.90
18191;DHT22;47004;51.366;12.348;2023-11-21T08:28:30;7.30;99.90
18191;DHT22;47004;51.366;12.348;2023-11-21T08:30:32;7.30;99.90
18191;DHT22;47004;51.366;12.348;2023-11-21T08:32:35;7.30;99.90
18191;DHT22;47004;51.366;12.348;2023-11-21T08:34:37;7.30;99.90
18191;DHT22;47004;51.366;12.348;2023-11-21T08:36:42;7.40;99.90
18191;DHT22;47004;51.366;12.348;2023-11-21T08:38:45;7.40;99.90
18191;DHT22;47004;51.366;12.348;2023-11-21T08:40:47;7.40;99.90
18191;DHT22;47004;51.366;12.348;2023-11-21T08:42:49;7.40;99.90
18191;DHT22;47004;51.366;12.348;2023-11-21T08:44:53;7.30;99.90
18191;DHT22;47004;51.366;12.348;2023-11-21T08:46:55;7.40;99.90
18191;DHT22;47004;51.366;12.348;2023-11-21T08:48:56;7.30;99.90
18191;DHT22;47004;51.366;12.348;2023-11-21T08:50:57;7.30;99.90
18191;DHT22;47004;51.366;12.348;2023-11-21T08:53:00;7.30;99.90
18191;DHT22;47004;51.366;12.348;2023-11-21T08:55:04;7.30;99.90
18191;DHT22;47004;51.366;12.348;2023-11-21T08:57:08;7.30;99.90
18191;DHT22;47004;51.366;12.348;2023-11-21T08:59:10;7.30;99.90
18191;DHT22;47004;51.366;12.348;2023-11-21T09:01:14;7.30;99.90
18191;DHT22;47004;51.366;12.348;2023-11-21T09:03:16;7.30;99.90
18191;DHT22;47004;51.366;12.348;2023-11-21T09:05:18;7.30;99.90
18191;DHT22;47004;51.366;12.348;2023-11-21T09:07:21;7.30;99.90
18191;DHT22;47004;51.366;12.348;2023-11-21T09:09:22;7.30;99.90
18191;DHT22;47004;51.366;12.348;2023-11-21T09:11:26;7.30;99.90
18191;DHT22;47004;51.366;12.348;2023-11-21T09:13:34;7.80;99.90
18191;DHT22;47004;51.366;12.348;2023-11-21T09:15:36;7.30;99.90
18191;DHT22;47004;51.366;12.348;2023-11-21T09:17:38;7.50;99.90
18191;DHT22;47004;51.366;12.348;2023-11-21T09:19:44;7.30;99.90
18191;DHT22;47004;51.366;12.348;2023-11-21T09:21:47;7.30;99.90
18191;DHT22;47004;51.366;12.348;2023-11-21T09:23:49;7.30;99.90
18191;DHT22;47004;51.366;12.348;2023-11-21T09:25:52;7.30;99.90
18191;DHT22;47004;51.366;12.348;2023-11-21T09:27:58;7.30;99.90
18191;DHT22;47004;51.366;12.348;2023-11-21T09:30:01;7.30;99.90
18191;DHT22;47004;51.366;12.348;2023-11-21T09:32:02;7.30;99.90
18191;DHT22;47004;51.366;12.348;2023-11-21T09:34:07;7.30;99.90
18191;DHT22;47004;51.366;12.348;2023-11-21T09:36:11;7.30;99.90
18191;DHT22;47004;51.366;12.348;2023-11-21T09:38:14;7.30;99.90
18191;DHT22;47004;51.366;12.348;2023-11-21T09:40:20;7.30;99.90
18191;DHT22;47004;51.366;12.348;2023-11-21T09:42:25;7.40;99.90
18191;DHT22;47004;51.366;12.348;2023-11-21T09:44:40;7.30;99.90
18191;DHT22;47004;51.366;12.348;2023-11-21T09:46:43;7.40;99.90
18191;DHT22;47004;51.366;12.348;2023-11-21T09:48:48;7.00;99.90
18191;DHT22;47004;51.366;12.348;2023-11-21T09:50:53;7.40;99.90
18191;DHT22;47004;51.366;12.348;2023-11-21T09:52:58;7.40;99.90
18191;DHT22;47004;51.366;12.348;2023-11-21T09:55:06;7.40;99.90
18191;DHT22;47004;51.366;12.348;2023-11-21T09:57:09;7.40;99.90
18191;DHT22;47004;51.366;12.348;2023-11-21T09:59:13;7.40;99.90
18191;DHT22;47004;51.366;12.348;2023-11-21T10:01:19;7.30;99.90
18191;DHT22;47004;51.366;12.348;2023-11-21T10:03:22;7.30;99.90
18191;DHT22;47004;51.366;12.348;2023-11-21T10:05:25;7.30;99.90
18191;DHT22;47004;51.366;12.348;2023-11-21T10:07:26;7.30;99.90
18191;DHT22;47004;51.366;12.348;2023-11-21T10:09:30;7.20;99.90
18191;DHT22;47004;51.366;12.348;2023-11-21T10:11:33;7.20;99.90
18191;DHT22;47004;51.366;12.348;2023-11-21T10:13:35;7.20;99.90
18191;DHT22;47004;51.366;12.348;2023-11-21T10:15:38;7.20;99.90
18191;DHT22;47004;51.366;12.348;2023-11-21T10:17:42;7.30;99.90
18191;DHT22;47004;51.366;12.348;2023-11-21T10:19:47;7.10;99.90
18191;DHT22;47004;51.366;12.348;2023-11-21T10:21:49;7.20;99.90
18191;DHT22;47004;51.366;12.348;2023-11-21T10:23:53;7.10;99.90
18191;DHT22;47004;51.366;12.348;2023-11-21T10:25:56;7.10;99.90
18191;DHT22;47004;51.366;12.348;2023-11-21T10:28:02;7.10;99.90
18191;DHT22;47004;51.366;12.348;2023-11-21T10:30:06;7.10;99.90
18191;DHT22;47004;51.366;12.348;2023-11-21T10:32:12;7.10;99.90
18191;DHT22;47004;51.366;12.348;2023-11-21T10:34:16;7.10;99.90
18191;DHT22;47004;51.366;12.348;2023-11-21T10:36:28;7.10;99.90
18191;DHT22;47004;51.366;12.348;2023-11-21T10:38:35;7.10;99.90
18191;DHT22;47004;51.366;12.348;2023-11-21T10:40:44;7.10;99.90
18191;DHT22;47004;51.366;12.348;2023-11-21T10:42:47;7.20;99.90
18191;DHT22;47004;51.366;12.348;2023-11-21T10:44:49;7.30;99.90
18191;DHT22;47004;51.366;12.348;2023-11-21T10:46:52;7.20;99.90
18191;DHT22;47004;51.366;12.348;2023-11-21T10:48:57;7.10;99.90
18191;DHT22;47004;51.366;12.348;2023-11-21T10:51:06;7.10;99.90
18191;DHT22;47004;51.366;12.348;2023-11-21T10:53:10;7.10;99.90
18191;DHT22;47004;51.366;12.348;2023-11-21T10:55:16;7.10;99.90
18191;DHT22;47004;51.366;12.348;2023-11-21T10:57:20;7.40;99.90
18191;DHT22;47004;51.366;12.348;2023-11-21T10:59:26;7.10;99.90
18191;DHT22;47004;51.366;12.348;2023-11-21T11:01:30;7.10;99.90
18191;DHT22;47004;51.366;12.348;2023-11-21T11:03:32;7.10;99.90
18191;DHT22;47004;51.366;12.348;2023-11-21T11:05:37;7.10;99.90
18191;DHT22;47004;51.366;12.348;2023-11-21T11:07:43;7.10;99.90
18191;DHT22;47004;51.366;12.348;2023-11-21T11:09:46;7.10;99.90
18191;DHT22;47004;51.366;12.348;2023-11-21T11:11:48;7.10;99.90
18191;DHT22;47004;51.366;12.348;2023-11-21T11:13:50;7.10;99.90
18191;DHT22;47004;51.366;12.348;2023-11-21T11:15:58;7.10;99.90
18191;DHT22;47004;51.366;12.348;2023-11-21T11:18:02;7.10;99.90
18191;DHT22;47004;51.366;12.348;2023-11-21T11:20:08;7.10;99.90
18191;DHT22;47004;51.366;12.348;2023-11-21T11:22:23;7.10;99.90
18191;DHT22;47004;51.366;12.348;2023-11-21T11:24:45;7.10;99.90
18191;DHT22;47004;51.366;12.348;2023-11-21T11:26:58;7.10;99.90
18191;DHT22;47004;51.366;12.348;2023-11-21T11:29:08;7.10;99.90
18191;DHT22;47004;51.366;12.348;2023-11-21T11:31:16;7.10;99.90
18191;DHT22;47004;51.366;12.348;2023-11-21T11:35:52;7.20;99.90
18191;DHT22;47004;51.366;12.348;2023-11-21T11:37:55;7.00;99.90
18191;DHT22;47004;51.366;12.348;2023-11-21T11:40:00;7.00;99.90
18191;DHT22;47004;51.366;12.348;2023-11-21T11:42:03;7.00;99.90
18191;DHT22;47004;51.366;12.348;2023-11-21T11:46:46;7.00;99.90
18191;DHT22;47004;51.366;12.348;2023-11-21T11:48:49;6.90;99.90
18191;DHT22;47004;51.366;12.348;2023-11-21T11:51:05;6.90;99.90
18191;DHT22;47004;51.366;12.348;2023-11-21T11:53:13;6.90;99.90
18191;DHT22;47004;51.366;12.348;2023-11-21T11:55:17;6.90;99.90
18191;DHT22;47004;51.366;12.348;2023-11-21T11:57:24;6.80;99.90
18191;DHT22;47004;51.366;12.348;2023-11-21T11:59:25;6.80;99.90
18191;DHT22;47004;51.366;12.348;2023-11-21T12:01:27;6.80;99.90
18191;DHT22;47004;51.366;12.348;2023-11-21T12:03:31;6.80;99.90
18191;DHT22;47004;51.366;12.348;2023-11-21T12:05:35;6.80;99.90
18191;DHT22;47004;51.366;12.348;2023-11-21T12:07:47;6.80;99.90
18191;DHT22;47004;51.366;12.348;2023-11-21T12:09:49;6.70;99.90
18191;DHT22;47004;51.366;12.348;2023-11-21T12:11:53;6.70;99.90
18191;DHT22;47004;51.366;12.348;2023-11-21T12:13:57;6.70;99.90
18191;DHT22;47004;51.366;12.348;2023-11-21T12:15:59;6.70;99.90
18191;DHT22;47004;51.366;12.348;2023-11-21T12:18:01;6.70;99.90
18191;DHT22;47004;51.366;12.348;2023-11-21T12:20:05;6.70;99.90
18191;DHT22;47004;51.366;12.348;2023-11-21T12:22:06;6.70;99.90
18191;DHT22;47004;51.366;12.348;2023-11-21T12:24:08;6.60;99.90
18191;DHT22;47004;51.366;12.348;2023-11-21T12:26:14;6.60;99.90
18191;DHT22;47004;51.366;12.348;2023-11-21T12:28:17;6.60;99.90
18191;DHT22;47004;51.366;12.348;2023-11-21T12:30:20;6.90;99.90
18191;DHT22;47004;51.366;12.348;2023-11-21T12:32:25;6.50;99.90
18191;DHT22;47004;51.366;12.348;2023-11-21T12:34:27;6.50;99.90
18191;DHT22;47004;51.366;12.348;2023-11-21T12:36:29;6.50;99.90
18191;DHT22;47004;51.366;12.348;2023-11-21T12:38:34;6.50;99.90
18191;DHT22;47004;51.366;12.348;2023-11-21T12:40:36;6.40;99.90
18191;DHT22;47004;51.366;12.348;2023-11-21T12:42:37;6.40;99.90
18191;DHT22;47004;51.366;12.348;2023-11-21T12:44:42;6.30;99.90
18191;DHT22;47004;51.366;12.348;2023-11-21T12:46:46;6.30;99.90
18191;DHT22;47004;51.366;12.348;2023-11-21T12:48:48;6.20;99.90
18191;DHT22;47004;51.366;12.348;2023-11-21T12:50:50;6.50;99.90
18191;DHT22;47004;51.366;12.348;2023-11-21T12:52:54;6.10;99.90
18191;DHT22;47004;51.366;12.348;2023-11-21T12:54:56;6.00;99.90
18191;DHT22;47004;51.366;12.348;2023-11-21T12:56:59;6.00;99.90
18191;DHT22;47004;51.366;12.348;2023-11-21T12:59:02;6.00;99.90
18191;DHT22;47004;51.366;12.348;2023-11-21T13:01:07;5.90;99.90
18191;DHT22;47004;51.366;12.348;2023-11-21T13:03:13;5.90;99.90